createdAt,value
2019-04-06T00:01:58.219Z,8.10
2019-04-06T00:04:26.634Z,8.00
2019-04-06T00:06:55.051Z,8.00
2019-04-06T00:09:23.451Z,8.00
2019-04-06T00:11:51.873Z,8.00
2019-04-06T00:14:20.272Z,8.00
2019-04-06T00:16:48.700Z,8.00
2019-04-06T00:19:17.101Z,8.00
2019-04-06T00:21:45.532Z,8.00
2019-04-06T00:24:13.941Z,8.00
2019-04-06T00:26:42.385Z,8.00
2019-04-06T00:29:10.784Z,7.90
2019-04-06T00:31:46.748Z,7.90
2019-04-06T00:34:15.153Z,7.90
2019-04-06T00:36:43.587Z,7.90
2019-04-06T00:39:12.009Z,7.90
2019-04-06T00:41:40.484Z,7.90
2019-04-06T00:44:08.884Z,7.90
2019-04-06T00:46:37.349Z,7.90
2019-04-06T00:49:05.844Z,7.90
2019-04-06T00:51:34.272Z,7.90
2019-04-06T00:54:02.768Z,7.80
2019-04-06T00:56:31.216Z,7.80
2019-04-06T00:58:59.644Z,7.80
2019-04-06T01:01:28.067Z,7.80
2019-04-06T01:03:56.480Z,7.80
2019-04-06T01:06:24.900Z,7.70
2019-04-06T01:08:53.321Z,7.70
2019-04-06T01:11:21.835Z,7.60
2019-04-06T01:13:50.228Z,7.60
2019-04-06T01:16:18.702Z,7.60
2019-04-06T01:18:47.126Z,7.60
2019-04-06T01:21:15.547Z,7.50
2019-04-06T01:23:43.951Z,7.50
2019-04-06T01:26:12.347Z,7.40
2019-04-06T01:28:40.764Z,7.40
2019-04-06T01:31:09.182Z,7.30
2019-04-06T01:33:37.607Z,7.30
2019-04-06T01:36:06.102Z,7.30
2019-04-06T01:38:34.555Z,7.20
2019-04-06T01:41:02.978Z,7.10
2019-04-06T01:43:31.404Z,7.10
2019-04-06T01:45:59.808Z,7.10
2019-04-06T01:48:28.222Z,7.00
2019-04-06T01:50:56.929Z,7.00
2019-04-06T01:53:25.491Z,7.00
2019-04-06T01:55:53.899Z,7.00
2019-04-06T01:58:22.336Z,6.90
2019-04-06T02:00:55.331Z,6.80
2019-04-06T02:03:23.755Z,6.80
2019-04-06T02:05:52.159Z,6.80
2019-04-06T02:08:20.609Z,6.80
2019-04-06T02:10:49.085Z,6.70
2019-04-06T02:13:17.621Z,6.80
2019-04-06T02:15:46.318Z,6.80
2019-04-06T02:18:14.727Z,6.80
2019-04-06T02:20:43.149Z,6.80
2019-04-06T02:23:11.559Z,6.80
2019-04-06T02:25:39.997Z,6.80
2019-04-06T02:28:08.400Z,6.90
2019-04-06T02:30:44.293Z,6.90
2019-04-06T02:33:20.200Z,6.80
2019-04-06T02:35:55.949Z,6.70
2019-04-06T02:38:34.876Z,6.60
2019-04-06T02:41:05.615Z,6.50
2019-04-06T02:43:35.746Z,6.50
2019-04-06T02:46:04.425Z,6.40
2019-04-06T02:48:32.841Z,6.30
2019-04-06T02:51:01.283Z,6.30
2019-04-06T02:53:29.882Z,6.30
2019-04-06T02:55:58.395Z,6.30
2019-04-06T02:58:26.852Z,6.30
2019-04-06T03:00:55.343Z,6.30
2019-04-06T03:03:23.751Z,6.20
2019-04-06T03:05:52.180Z,6.20
2019-04-06T03:08:20.597Z,6.20
2019-04-06T03:10:49.004Z,6.10
2019-04-06T03:13:17.511Z,6.10
2019-04-06T03:15:45.923Z,6.10
2019-04-06T03:18:14.351Z,6.00
2019-04-06T03:20:42.761Z,6.00
2019-04-06T03:23:11.197Z,5.90
2019-04-06T03:25:39.672Z,6.00
2019-04-06T03:28:08.103Z,5.90
2019-04-06T03:30:37.053Z,5.90
2019-04-06T03:33:05.826Z,6.10
2019-04-06T03:35:34.293Z,6.10
2019-04-06T03:38:02.802Z,6.00
2019-04-06T03:40:31.281Z,6.00
2019-04-06T03:42:59.723Z,6.10
2019-04-06T03:45:28.260Z,6.10
2019-04-06T03:47:56.990Z,6.00
2019-04-06T03:50:25.563Z,6.00
2019-04-06T03:52:54.072Z,6.00
2019-04-06T03:55:22.599Z,6.00
2019-04-06T03:57:51.111Z,6.00
2019-04-06T04:00:19.597Z,5.90
2019-04-06T04:02:48.018Z,5.90
2019-04-06T04:05:16.432Z,5.90
2019-04-06T04:07:44.830Z,6.00
2019-04-06T04:10:16.355Z,6.10
2019-04-06T04:12:44.759Z,5.90
2019-04-06T04:15:13.183Z,5.80
2019-04-06T04:17:41.586Z,5.80
2019-04-06T04:20:10.066Z,5.80
2019-04-06T04:22:38.499Z,5.80
2019-04-06T04:25:07.075Z,5.70
2019-04-06T04:27:35.591Z,5.80
2019-04-06T04:30:06.656Z,5.70
2019-04-06T04:32:35.112Z,5.70
2019-04-06T04:35:04.282Z,5.70
2019-04-06T04:37:32.759Z,5.70
2019-04-06T04:40:01.213Z,5.70
2019-04-06T04:42:29.619Z,5.70
2019-04-06T04:44:58.122Z,5.70
2019-04-06T04:47:26.519Z,5.70
2019-04-06T04:49:54.950Z,5.70
2019-04-06T04:52:23.357Z,5.80
2019-04-06T04:54:51.786Z,5.80
2019-04-06T04:57:20.379Z,5.80
2019-04-06T04:59:48.880Z,5.80
2019-04-06T05:02:17.289Z,5.90
2019-04-06T05:04:45.731Z,5.90
2019-04-06T05:07:14.275Z,5.90
2019-04-06T05:09:42.815Z,5.90
2019-04-06T05:12:11.223Z,5.80
2019-04-06T05:14:59.607Z,5.90
2019-04-06T05:17:28.087Z,5.80
2019-04-06T05:19:56.699Z,5.70
2019-04-06T05:22:25.169Z,5.70
2019-04-06T05:24:53.659Z,5.70
2019-04-06T05:27:22.576Z,5.70
2019-04-06T05:29:51.030Z,5.70
2019-04-06T05:32:19.440Z,5.80
2019-04-06T05:34:47.860Z,5.70
2019-04-06T05:37:16.264Z,5.70
2019-04-06T05:39:44.727Z,5.80
2019-04-06T05:42:13.115Z,5.70
2019-04-06T05:44:41.531Z,5.80
2019-04-06T05:47:09.939Z,5.90
2019-04-06T05:49:38.372Z,5.90
2019-04-06T05:52:07.844Z,5.80
2019-04-06T05:54:36.261Z,5.80
2019-04-06T05:57:05.139Z,5.70
2019-04-06T05:59:33.530Z,5.70
2019-04-06T06:02:01.962Z,5.80
2019-04-06T06:04:30.452Z,5.70
2019-04-06T06:06:58.873Z,5.70
2019-04-06T06:09:27.278Z,5.70
2019-04-06T06:11:56.098Z,5.70
2019-04-06T06:14:24.712Z,5.80
2019-04-06T06:16:53.191Z,5.90
2019-04-06T06:19:21.639Z,5.90
2019-04-06T06:21:50.087Z,5.90
2019-04-06T06:24:18.603Z,6.00
2019-04-06T06:26:47.119Z,5.90
2019-04-06T06:29:15.719Z,6.00
2019-04-06T06:31:44.270Z,6.00
2019-04-06T06:34:12.852Z,6.10
2019-04-06T06:36:41.389Z,6.20
2019-04-06T06:39:10.357Z,6.30
2019-04-06T06:41:38.851Z,6.30
2019-04-06T06:44:07.262Z,6.30
2019-04-06T06:46:35.725Z,6.40
2019-04-06T06:49:04.335Z,6.40
2019-04-06T06:51:32.855Z,6.40
2019-04-06T06:54:01.278Z,6.50
2019-04-06T06:56:29.703Z,6.60
2019-04-06T06:58:58.134Z,6.60
2019-04-06T07:01:26.650Z,6.60
2019-04-06T07:03:55.040Z,6.60
2019-04-06T07:06:23.697Z,6.70
2019-04-06T07:08:52.403Z,6.70
2019-04-06T07:11:20.955Z,6.70
2019-04-06T07:13:49.436Z,6.80
2019-04-06T07:16:17.861Z,6.80
2019-04-06T07:18:46.279Z,6.90
2019-04-06T07:21:16.644Z,7.00
2019-04-06T07:23:44.823Z,7.00
2019-04-06T07:26:13.240Z,7.20
2019-04-06T07:28:41.651Z,7.40
2019-04-06T07:31:10.090Z,7.60
2019-04-06T07:33:38.493Z,7.70
2019-04-06T07:36:06.894Z,8.00
2019-04-06T07:38:37.741Z,8.40
2019-04-06T07:41:05.452Z,8.80
2019-04-06T07:43:33.875Z,9.20
2019-04-06T07:46:02.285Z,9.60
2019-04-06T07:48:30.691Z,9.80
2019-04-06T07:50:59.346Z,10.20
2019-04-06T07:53:27.888Z,10.30
2019-04-06T07:55:56.360Z,10.50
2019-04-06T07:58:24.825Z,10.60
2019-04-06T08:00:53.328Z,10.70
2019-04-06T08:03:21.751Z,11.00
2019-04-06T08:05:50.165Z,11.20
2019-04-06T08:08:18.570Z,11.50
2019-04-06T08:10:46.987Z,11.70
2019-04-06T08:13:15.425Z,11.70
2019-04-06T08:15:43.868Z,11.60
2019-04-06T08:18:12.295Z,11.60
2019-04-06T08:20:40.714Z,11.70
2019-04-06T08:23:09.111Z,11.90
2019-04-06T08:25:37.589Z,12.10
2019-04-06T08:28:06.069Z,11.90
2019-04-06T08:30:44.680Z,12.00
2019-04-06T08:33:04.676Z,12.10
2019-04-06T08:35:33.139Z,12.20
2019-04-06T08:38:01.655Z,12.50
2019-04-06T08:40:30.072Z,12.60
2019-04-06T08:42:58.765Z,12.50
2019-04-06T08:45:27.182Z,12.60
2019-04-06T08:47:55.587Z,12.70
2019-04-06T08:50:24.004Z,12.70
2019-04-06T08:52:52.424Z,12.70
2019-04-06T08:55:20.879Z,12.90
2019-04-06T08:57:49.275Z,12.90
2019-04-06T09:00:18.053Z,12.90
2019-04-06T09:02:46.455Z,13.10
2019-04-06T09:05:15.010Z,13.50
2019-04-06T09:07:43.457Z,13.50
2019-04-06T09:10:12.274Z,13.60
2019-04-06T09:12:40.684Z,13.80
2019-04-06T09:15:09.998Z,14.10
2019-04-06T09:17:38.459Z,14.40
2019-04-06T09:20:08.085Z,14.60
2019-04-06T09:22:36.700Z,14.50
2019-04-06T09:25:06.553Z,14.50
2019-04-06T09:27:35.161Z,14.60
2019-04-06T09:30:04.853Z,15.30
2019-04-06T09:32:33.367Z,15.40
2019-04-06T09:35:01.824Z,15.40
2019-04-06T09:37:30.258Z,15.50
2019-04-06T09:39:58.689Z,15.50
2019-04-06T09:42:27.320Z,15.80
2019-04-06T09:45:03.160Z,16.10
2019-04-06T09:47:49.475Z,16.60
2019-04-06T09:50:28.818Z,17.20
2019-04-06T09:53:04.768Z,17.30
2019-04-06T09:55:49.833Z,17.50
2019-04-06T09:58:31.949Z,18.00
2019-04-06T10:01:18.446Z,18.40
2019-04-06T10:03:48.486Z,18.70
2019-04-06T10:06:27.941Z,19.20
2019-04-06T10:09:14.141Z,20.00
2019-04-06T10:11:50.058Z,20.40
2019-04-06T10:14:20.159Z,20.40
2019-04-06T10:17:08.611Z,19.90
2019-04-06T10:19:38.712Z,19.60
2019-04-06T10:22:17.603Z,19.20
2019-04-06T10:24:53.656Z,19.30
2019-04-06T10:27:26.688Z,19.40
2019-04-06T10:30:08.239Z,19.20
2019-04-06T10:32:41.262Z,19.50
2019-04-06T10:35:11.403Z,19.60
2019-04-06T10:37:44.335Z,19.70
2019-04-06T10:40:30.999Z,19.40
2019-04-06T10:43:04.013Z,19.20
2019-04-06T10:45:50.104Z,18.70
2019-04-06T10:48:35.864Z,18.60
2019-04-06T10:51:06.055Z,18.80
2019-04-06T10:53:41.766Z,19.30
2019-04-06T10:56:11.978Z,19.20
2019-04-06T10:58:44.992Z,19.40
2019-04-06T11:01:31.552Z,19.70
2019-04-06T11:04:01.621Z,19.80
2019-04-06T11:06:43.744Z,20.20
2019-04-06T11:09:25.747Z,20.20
2019-04-06T11:11:55.837Z,20.50
2019-04-06T11:14:27.799Z,20.70
2019-04-06T11:16:57.971Z,21.50
2019-04-06T11:19:30.491Z,20.80
2019-04-06T11:22:17.215Z,20.40
2019-04-06T11:24:47.739Z,20.70
2019-04-06T11:27:23.779Z,20.50
2019-04-06T11:30:12.418Z,20.30
2019-04-06T11:32:50.056Z,20.50
2019-04-06T11:35:31.774Z,20.40
2019-04-06T11:38:16.880Z,20.70
2019-04-06T11:40:46.975Z,20.10
2019-04-06T11:43:28.974Z,20.50
2019-04-06T11:46:04.792Z,20.30
2019-04-06T11:48:34.998Z,21.00
2019-04-06T11:51:17.514Z,20.90
2019-04-06T11:54:02.659Z,20.90
2019-04-06T11:56:47.647Z,20.60
2019-04-06T11:59:17.751Z,19.70
2019-04-06T12:02:04.812Z,19.90
2019-04-06T12:04:35.031Z,20.10
2019-04-06T12:07:21.492Z,20.10
2019-04-06T12:09:54.884Z,20.00
2019-04-06T12:12:31.061Z,20.40
2019-04-06T12:15:19.469Z,20.10
2019-04-06T12:18:05.954Z,20.30
2019-04-06T12:20:45.025Z,20.70
2019-04-06T12:23:33.836Z,20.80
2019-04-06T12:26:04.147Z,20.40
2019-04-06T12:28:34.193Z,19.90
2019-04-06T12:31:04.326Z,19.00
2019-04-06T12:33:34.441Z,19.20
2019-04-06T12:36:07.243Z,19.70
2019-04-06T12:38:40.265Z,20.30
2019-04-06T12:41:28.860Z,19.70
2019-04-06T12:44:17.708Z,19.40
2019-04-06T12:46:59.614Z,19.60
2019-04-06T12:49:29.923Z,19.50
2019-04-06T12:52:18.467Z,18.80
2019-04-06T12:55:00.331Z,18.40
2019-04-06T12:57:30.450Z,17.90
2019-04-06T13:00:03.248Z,17.50
2019-04-06T13:02:36.328Z,17.20
2019-04-06T13:05:07.457Z,17.10
2019-04-06T13:07:37.839Z,16.90
2019-04-06T13:10:14.577Z,16.70
2019-04-06T13:12:44.773Z,16.60
2019-04-06T13:15:30.500Z,16.60
2019-04-06T13:18:12.875Z,16.60
2019-04-06T13:20:45.561Z,16.80
2019-04-06T13:23:24.723Z,16.40
2019-04-06T13:25:57.741Z,16.40
2019-04-06T13:28:27.875Z,16.40
2019-04-06T13:31:03.572Z,16.30
2019-04-06T13:33:34.543Z,16.30
2019-04-06T13:36:10.531Z,16.20
2019-04-06T13:38:40.595Z,16.10
2019-04-06T13:41:16.612Z,16.20
2019-04-06T13:43:46.732Z,16.50
2019-04-06T13:46:19.276Z,16.60
2019-04-06T13:49:04.440Z,16.50
2019-04-06T13:51:40.643Z,16.50
2019-04-06T13:54:27.156Z,16.50
2019-04-06T13:57:00.512Z,16.60
2019-04-06T13:59:36.588Z,16.50
2019-04-06T14:02:12.977Z,16.70
2019-04-06T14:04:59.692Z,16.70
2019-04-06T14:07:32.474Z,16.60
2019-04-06T14:10:02.537Z,16.30
2019-04-06T14:12:49.102Z,16.40
2019-04-06T14:15:19.291Z,16.30
2019-04-06T14:17:52.391Z,16.30
2019-04-06T14:20:38.984Z,16.40
2019-04-06T14:23:09.052Z,16.40
2019-04-06T14:25:53.257Z,16.20
2019-04-06T14:28:28.874Z,16.10
2019-04-06T14:30:59.174Z,16.10
2019-04-06T14:33:29.302Z,16.20
2019-04-06T14:35:59.386Z,16.20
2019-04-06T14:38:47.805Z,16.20
2019-04-06T14:41:20.887Z,16.40
2019-04-06T14:43:51.280Z,16.50
2019-04-06T14:46:37.943Z,16.60
2019-04-06T14:49:30.846Z,16.60
2019-04-06T14:51:59.000Z,16.40
2019-04-06T14:54:29.082Z,16.40
2019-04-06T14:57:01.585Z,16.40
2019-04-06T14:59:46.762Z,16.40
2019-04-06T15:02:19.676Z,16.30
2019-04-06T15:04:52.495Z,16.20
2019-04-06T15:07:37.926Z,16.20
2019-04-06T15:10:11.330Z,16.20
2019-04-06T15:12:58.206Z,16.30
2019-04-06T15:15:37.473Z,16.40
2019-04-06T15:18:24.000Z,16.30
2019-04-06T15:21:10.788Z,16.30
2019-04-06T15:23:52.781Z,16.30
2019-04-06T15:26:28.344Z,16.10
2019-04-06T15:29:00.423Z,16.10
2019-04-06T15:31:32.871Z,16.20
2019-04-06T15:34:15.147Z,16.10
2019-04-06T15:36:51.248Z,16.10
2019-04-06T15:39:21.650Z,15.80
2019-04-06T15:42:03.807Z,15.80
2019-04-06T15:44:48.982Z,15.80
2019-04-06T15:47:25.315Z,15.90
2019-04-06T15:49:55.812Z,15.90
2019-04-06T15:52:31.737Z,15.90
2019-04-06T15:55:01.774Z,16.00
2019-04-06T15:57:37.547Z,16.10
2019-04-06T16:00:16.961Z,16.20
2019-04-06T16:02:49.782Z,16.30
2019-04-06T16:05:25.927Z,16.20
2019-04-06T16:07:58.408Z,16.20
2019-04-06T16:10:44.727Z,16.20
2019-04-06T16:13:31.032Z,16.20
2019-04-06T16:16:01.156Z,16.20
2019-04-06T16:18:35.178Z,16.20
2019-04-06T16:21:14.471Z,16.30
2019-04-06T16:24:03.066Z,16.10
2019-04-06T16:26:31.087Z,16.10
2019-04-06T16:29:03.862Z,16.00
2019-04-06T16:31:50.348Z,16.00
2019-04-06T16:34:32.790Z,16.00
2019-04-06T16:37:08.720Z,16.00
2019-04-06T16:39:41.686Z,15.90
2019-04-06T16:42:12.114Z,15.90
2019-04-06T16:44:45.304Z,15.90
2019-04-06T16:47:18.138Z,15.90
2019-04-06T16:50:04.678Z,15.80
2019-04-06T16:52:43.709Z,15.90
2019-04-06T16:55:31.709Z,15.90
2019-04-06T16:58:17.716Z,15.80
2019-04-06T17:01:04.869Z,15.70
2019-04-06T17:03:37.637Z,15.70
2019-04-06T17:06:20.312Z,15.60
2019-04-06T17:08:56.619Z,15.60
2019-04-06T17:11:38.557Z,15.40
2019-04-06T17:14:14.745Z,15.40
2019-04-06T17:16:53.951Z,15.60
2019-04-06T17:19:40.562Z,15.60
2019-04-06T17:22:10.621Z,15.60
2019-04-06T17:24:56.999Z,15.60
2019-04-06T17:27:33.039Z,15.50
2019-04-06T17:30:05.787Z,15.60
2019-04-06T17:32:38.572Z,15.60
2019-04-06T17:35:26.524Z,15.60
2019-04-06T17:38:08.934Z,15.60
2019-04-06T17:40:39.051Z,15.60
2019-04-06T17:43:12.155Z,15.50
2019-04-06T17:45:42.592Z,15.50
2019-04-06T17:48:12.771Z,15.50
2019-04-06T17:50:45.651Z,15.40
2019-04-06T17:53:32.070Z,15.40
2019-04-06T17:56:05.092Z,15.30
2019-04-06T17:58:35.510Z,15.30
2019-04-06T18:01:06.045Z,15.30
2019-04-06T18:03:42.185Z,15.30
2019-04-06T18:06:12.396Z,15.30
2019-04-06T18:08:45.394Z,15.20
2019-04-06T18:11:30.808Z,15.20
2019-04-06T18:13:59.734Z,15.10
2019-04-06T18:16:30.057Z,15.00
2019-04-06T18:18:58.740Z,15.00
2019-04-06T18:21:27.223Z,15.00
2019-04-06T18:23:55.636Z,14.90
2019-04-06T18:26:24.037Z,14.90
2019-04-06T18:28:52.751Z,14.80
2019-04-06T18:31:32.347Z,14.80
2019-04-06T18:34:00.812Z,14.80
2019-04-06T18:36:30.876Z,14.80
2019-04-06T18:39:03.617Z,14.70
2019-04-06T18:41:32.083Z,14.70
2019-04-06T18:44:00.535Z,14.70
2019-04-06T18:46:29.241Z,14.70
2019-04-06T18:48:57.752Z,14.70
2019-04-06T18:51:26.198Z,14.60
2019-04-06T18:53:54.877Z,14.60
2019-04-06T18:56:23.373Z,14.60
2019-04-06T18:58:51.796Z,14.60
2019-04-06T19:01:20.366Z,14.50
2019-04-06T19:03:49.026Z,14.50
2019-04-06T19:06:17.856Z,14.50
2019-04-06T19:08:46.840Z,14.40
2019-04-06T19:11:15.408Z,14.40
2019-04-06T19:13:44.315Z,14.30
2019-04-06T19:16:12.923Z,14.30
2019-04-06T19:18:41.353Z,14.30
2019-04-06T19:21:09.770Z,14.30
2019-04-06T19:23:38.247Z,14.20
2019-04-06T19:26:06.695Z,14.10
2019-04-06T19:28:35.497Z,14.00
2019-04-06T19:31:04.589Z,14.00
2019-04-06T19:33:33.039Z,14.00
2019-04-06T19:36:01.452Z,13.90
2019-04-06T19:38:29.971Z,13.80
2019-04-06T19:40:58.621Z,13.80
2019-04-06T19:43:27.055Z,13.80
2019-04-06T19:45:55.473Z,13.70
2019-04-06T19:48:23.883Z,13.70
2019-04-06T19:50:52.375Z,13.70
2019-04-06T19:53:21.297Z,13.60
2019-04-06T19:55:49.927Z,13.50
2019-04-06T19:58:18.496Z,13.50
2019-04-06T20:00:46.979Z,13.50
2019-04-06T20:03:15.498Z,13.30
2019-04-06T20:05:43.958Z,13.30
2019-04-06T20:08:12.501Z,13.30
2019-04-06T20:10:40.973Z,13.40
2019-04-06T20:13:09.391Z,13.30
2019-04-06T20:15:37.791Z,13.50
2019-04-06T20:18:06.241Z,13.60
2019-04-06T20:20:34.657Z,13.70
2019-04-06T20:23:03.079Z,13.70
2019-04-06T20:25:31.905Z,13.70
2019-04-06T20:28:00.393Z,13.70
2019-04-06T20:30:28.779Z,13.70
2019-04-06T20:32:57.798Z,13.70
2019-04-06T20:35:26.723Z,13.60
2019-04-06T20:37:55.526Z,13.60
2019-04-06T20:40:24.309Z,13.50
2019-04-06T20:42:52.800Z,13.40
2019-04-06T20:45:21.274Z,13.40
2019-04-06T20:47:49.733Z,13.40
2019-04-06T20:50:18.190Z,13.30
2019-04-06T20:52:46.615Z,13.20
2019-04-06T20:55:15.438Z,13.20
2019-04-06T20:57:44.024Z,13.30
2019-04-06T21:00:12.867Z,13.30
2019-04-06T21:02:41.299Z,13.30
2019-04-06T21:05:09.952Z,13.20
2019-04-06T21:07:38.367Z,13.10
2019-04-06T21:10:08.895Z,13.20
2019-04-06T21:12:37.488Z,13.30
2019-04-06T21:15:16.980Z,13.30
2019-04-06T21:17:37.983Z,13.30
2019-04-06T21:20:08.034Z,13.10
2019-04-06T21:22:36.554Z,13.10
2019-04-06T21:25:06.967Z,13.10
2019-04-06T21:27:36.093Z,13.10
2019-04-06T21:30:07.061Z,13.10
2019-04-06T21:32:36.089Z,13.10
2019-04-06T21:35:08.301Z,13.10
2019-04-06T21:37:36.988Z,13.00
2019-04-06T21:40:06.651Z,13.00
2019-04-06T21:42:35.468Z,13.00
2019-04-06T21:45:06.319Z,13.10
2019-04-06T21:47:35.280Z,13.00
2019-04-06T21:50:06.030Z,13.00
2019-04-06T21:52:34.463Z,13.00
2019-04-06T21:55:02.925Z,13.10
2019-04-06T21:57:31.349Z,13.00
2019-04-06T22:00:00.819Z,13.00
2019-04-06T22:02:29.586Z,13.00
2019-04-06T22:04:58.157Z,12.90
2019-04-06T22:07:27.078Z,12.80
2019-04-06T22:09:55.849Z,12.80
2019-04-06T22:12:24.246Z,12.80
2019-04-06T22:14:52.663Z,12.80
2019-04-06T22:17:21.108Z,12.70
2019-04-06T22:19:49.569Z,12.50
2019-04-06T22:22:18.045Z,12.50
2019-04-06T22:24:46.495Z,12.50
2019-04-06T22:27:15.918Z,12.50
2019-04-06T22:29:44.475Z,12.40
2019-04-06T22:32:13.076Z,12.30
2019-04-06T22:34:41.963Z,12.30
2019-04-06T22:37:11.019Z,12.20
2019-04-06T22:39:39.436Z,12.20
2019-04-06T22:42:07.843Z,12.10
2019-04-06T22:44:36.267Z,12.00
2019-04-06T22:47:05.145Z,12.00
2019-04-06T22:49:33.850Z,11.90
2019-04-06T22:52:02.472Z,12.00
2019-04-06T22:54:30.887Z,12.00
2019-04-06T22:56:59.871Z,11.90
2019-04-06T22:59:28.886Z,11.90
2019-04-06T23:01:57.379Z,11.80
2019-04-06T23:04:48.659Z,11.70
2019-04-06T23:07:16.998Z,11.60
2019-04-06T23:09:45.473Z,11.50
2019-04-06T23:12:14.563Z,11.40
2019-04-06T23:14:43.124Z,11.50
2019-04-06T23:17:11.869Z,11.60
2019-04-06T23:19:40.453Z,11.60
2019-04-06T23:22:09.069Z,11.40
2019-04-06T23:24:37.703Z,11.30
2019-04-06T23:27:06.873Z,11.30
2019-04-06T23:29:36.339Z,11.40
2019-04-06T23:32:05.377Z,11.40
2019-04-06T23:34:34.114Z,11.40
2019-04-06T23:37:02.619Z,11.40
2019-04-06T23:39:31.048Z,11.30
2019-04-06T23:42:00.091Z,11.40
2019-04-06T23:44:28.651Z,11.30
2019-04-06T23:46:57.620Z,11.40
2019-04-06T23:49:26.934Z,11.40
2019-04-06T23:51:56.048Z,11.20
2019-04-06T23:54:25.203Z,11.30
2019-04-06T23:56:54.029Z,11.30
2019-04-06T23:59:22.562Z,11.30
